KOGA/OGA METAR and TAF weather

Enter ICAO airport designator
Station Type Date Time Source
KOGA METAR 2020/04/03 22:55 UTC NOAA

KOGA 032255Z AUTO 09004KT 10SM CLR 06/M09 A3013 RMK AO2 T00581088


Station Type Date Time Source
KOGA Decoded METAR 2020/04/03 22:55 UTC NOAA

Ogallala, Searle Field Airport, NE, United States (KOGA) 41-07-11N 101-46-08W
Apr 03, 2020 - 06:55 PM EDT / 2020.04.03 2255 UTC
Wind: from the E (090 degrees) at 5 MPH (4 KT):0
Visibility: 10 mile(s):0
Sky conditions: clear
Temperature: 42.4 F (5.8 C)
Dew Point: 16.2 F (-8.8 C)
Relative Humidity: 34%
Pressure (altimeter): 30.13 in. Hg (1020 hPa)
ob: KOGA 032255Z AUTO 09004KT 10SM CLR 06/M09 A3013 RMK AO2 T00581088
cycle: 23

Station Type Date Time Source
KOGA TAF UTC NOAA

Error!

Example: see airport list